createdAt,value
2022-11-23T00:01:35.982Z,23.70
2022-11-23T00:04:10.530Z,25.60
2022-11-23T00:06:38.943Z,26.20
2022-11-23T00:09:07.634Z,24.20
2022-11-23T00:11:35.826Z,25.70
2022-11-23T00:14:04.300Z,29.10
2022-11-23T00:16:32.259Z,21.00
2022-11-23T00:19:01.802Z,28.90
2022-11-23T00:21:32.283Z,26.90
2022-11-23T00:24:00.346Z,22.80
2022-11-23T00:26:30.922Z,23.10
2022-11-23T00:29:00.643Z,25.20
2022-11-23T00:31:28.721Z,23.50
2022-11-23T00:33:57.766Z,21.30
2022-11-23T00:36:27.352Z,21.30
2022-11-23T00:38:55.794Z,17.60
2022-11-23T00:41:26.446Z,21.10
2022-11-23T00:43:54.870Z,16.70
2022-11-23T00:46:25.961Z,19.60
2022-11-23T00:48:56.352Z,17.90
2022-11-23T00:51:26.892Z,19.80
2022-11-23T00:53:55.308Z,17.70
2022-11-23T00:56:23.561Z,13.80
2022-11-23T00:58:53.573Z,14.00
2022-11-23T01:01:24.276Z,13.40
2022-11-23T01:03:55.223Z,14.40
2022-11-23T01:06:30.104Z,13.20
2022-11-23T01:09:02.591Z,14.20
2022-11-23T01:11:32.338Z,19.50
2022-11-23T01:14:00.957Z,20.40
2022-11-23T01:16:34.848Z,21.90
2022-11-23T01:21:34.079Z,22.00
2022-11-23T01:24:13.028Z,21.80
2022-11-23T01:26:41.117Z,25.30
2022-11-23T01:29:08.944Z,24.10
2022-11-23T01:31:40.589Z,23.80
2022-11-23T01:34:14.266Z,22.70
2022-11-23T01:36:42.850Z,17.80
2022-11-23T01:39:12.231Z,17.00
2022-11-23T01:41:42.310Z,23.10
2022-11-23T01:44:41.762Z,16.80
2022-11-23T01:47:10.126Z,20.40
2022-11-23T01:49:45.163Z,18.30
2022-11-23T01:52:17.450Z,14.90
2022-11-23T01:54:49.502Z,12.00
2022-11-23T01:57:21.573Z,13.50
2022-11-23T01:59:50.977Z,12.20
2022-11-23T02:02:19.491Z,12.40
2022-11-23T02:04:52.215Z,12.10
2022-11-23T02:07:24.096Z,13.30
2022-11-23T02:09:52.810Z,11.90
2022-11-23T02:12:20.747Z,12.40
2022-11-23T02:14:48.616Z,14.00
2022-11-23T02:17:16.549Z,12.80
2022-11-23T02:19:56.294Z,11.30
2022-11-23T02:22:49.427Z,11.00
2022-11-23T02:25:27.573Z,10.90
2022-11-23T02:27:56.276Z,9.70
2022-11-23T02:30:25.444Z,10.90
2022-11-23T02:32:53.346Z,11.80
2022-11-23T02:35:21.265Z,11.00
2022-11-23T02:37:51.837Z,11.90
2022-11-23T02:40:32.433Z,16.90
2022-11-23T02:43:00.943Z,15.80
2022-11-23T02:45:41.514Z,17.20
2022-11-23T02:48:09.318Z,19.80
2022-11-23T02:50:37.091Z,16.20
2022-11-23T02:53:05.018Z,17.70
2022-11-23T02:55:33.189Z,17.40
2022-11-23T02:58:01.539Z,16.80
2022-11-23T03:00:29.631Z,15.50
2022-11-23T03:03:00.297Z,16.30
2022-11-23T03:05:28.933Z,14.50
2022-11-23T03:07:56.766Z,14.70
2022-11-23T03:10:25.140Z,13.40
2022-11-23T03:12:56.770Z,15.40
2022-11-23T03:15:24.878Z,14.60
2022-11-23T03:17:52.869Z,15.70
2022-11-23T03:20:20.961Z,14.90
2022-11-23T03:22:48.820Z,14.40
2022-11-23T03:25:16.661Z,16.50
2022-11-23T03:27:44.499Z,14.60
2022-11-23T03:30:12.446Z,14.00
2022-11-23T03:32:40.255Z,16.30
2022-11-23T03:35:08.593Z,13.90
2022-11-23T03:37:36.603Z,14.80
2022-11-23T03:40:04.698Z,15.50
2022-11-23T03:42:32.520Z,18.30
2022-11-23T03:45:00.378Z,15.40
2022-11-23T03:47:28.230Z,15.70
2022-11-23T03:49:56.051Z,16.70
2022-11-23T03:52:23.946Z,15.40
2022-11-23T03:54:51.716Z,16.90
2022-11-23T03:57:19.553Z,15.10
2022-11-23T03:59:47.365Z,14.50
2022-11-23T04:02:15.232Z,15.10
2022-11-23T04:04:43.075Z,15.20
2022-11-23T04:07:11.003Z,13.80
2022-11-23T04:09:38.846Z,15.20
2022-11-23T04:12:07.117Z,17.40
2022-11-23T04:14:35.180Z,15.30
2022-11-23T04:17:03.888Z,17.00
2022-11-23T04:19:32.611Z,16.70
2022-11-23T04:22:00.935Z,13.90
2022-11-23T04:24:28.739Z,15.10
2022-11-23T04:26:56.546Z,17.40
2022-11-23T04:29:24.401Z,16.70
2022-11-23T04:31:52.332Z,16.00
2022-11-23T04:34:20.529Z,14.30
2022-11-23T04:36:48.438Z,14.80
2022-11-23T04:39:16.277Z,14.50
2022-11-23T04:41:44.178Z,17.00
2022-11-23T04:44:12.044Z,14.80
2022-11-23T04:46:39.829Z,14.80
2022-11-23T04:49:09.549Z,15.40
2022-11-23T04:51:37.357Z,14.90
2022-11-23T04:54:05.444Z,14.70
2022-11-23T04:56:33.824Z,14.00
2022-11-23T04:59:01.600Z,14.50
2022-11-23T05:01:29.489Z,14.40
2022-11-23T05:03:57.873Z,13.70
2022-11-23T05:06:25.847Z,13.40
2022-11-23T05:08:54.034Z,14.00
2022-11-23T05:11:22.029Z,18.60
2022-11-23T05:13:49.912Z,13.00
2022-11-23T05:16:17.873Z,15.80
2022-11-23T05:18:45.821Z,15.60
2022-11-23T05:21:13.837Z,15.50
2022-11-23T05:23:41.620Z,18.50
2022-11-23T05:26:09.487Z,17.70
2022-11-23T05:28:40.651Z,15.90
2022-11-23T05:31:09.545Z,21.10
2022-11-23T05:33:37.391Z,18.70
2022-11-23T05:36:05.573Z,19.20
2022-11-23T05:38:33.464Z,16.50
2022-11-23T05:41:01.323Z,17.80
2022-11-23T05:43:29.159Z,19.90
2022-11-23T05:46:00.295Z,17.60
2022-11-23T05:48:28.372Z,13.10
2022-11-23T05:50:57.727Z,13.60
2022-11-23T05:53:31.020Z,16.80
2022-11-23T05:56:01.183Z,17.00
2022-11-23T05:58:29.512Z,13.50
2022-11-23T06:00:59.232Z,16.80
2022-11-23T06:03:27.932Z,14.70
2022-11-23T06:05:55.851Z,15.80
2022-11-23T06:08:23.976Z,14.30
2022-11-23T06:10:51.894Z,19.40
2022-11-23T06:13:19.812Z,15.60
2022-11-23T06:15:47.682Z,19.30
2022-11-23T06:18:15.588Z,16.40
2022-11-23T06:20:43.449Z,17.00
2022-11-23T06:23:11.440Z,16.70
2022-11-23T06:25:39.345Z,19.50
2022-11-23T06:28:07.274Z,19.50
2022-11-23T06:30:35.186Z,18.70
2022-11-23T06:33:04.728Z,17.60
2022-11-23T06:35:32.784Z,24.20
2022-11-23T06:38:00.649Z,27.90
2022-11-23T06:40:29.072Z,25.60
2022-11-23T06:43:00.419Z,24.90
2022-11-23T06:45:28.316Z,26.70
2022-11-23T06:47:57.002Z,24.90
2022-11-23T06:50:24.888Z,23.70
2022-11-23T06:52:57.512Z,24.50
2022-11-23T06:55:25.700Z,24.30
2022-11-23T06:57:53.657Z,25.40
2022-11-23T07:00:21.696Z,27.50
2022-11-23T07:02:54.154Z,24.60
2022-11-23T07:05:23.534Z,20.90
2022-11-23T07:07:51.531Z,22.20
2022-11-23T07:10:20.497Z,23.90
2022-11-23T07:12:48.470Z,26.70
2022-11-23T07:15:16.297Z,26.70
2022-11-23T07:17:46.950Z,26.10
2022-11-23T07:20:14.959Z,24.50
2022-11-23T07:22:42.847Z,23.60
2022-11-23T07:25:11.496Z,23.50
2022-11-23T07:27:39.337Z,24.60
2022-11-23T07:30:08.307Z,30.60
2022-11-23T07:32:36.514Z,31.40
2022-11-23T07:35:04.627Z,27.10
2022-11-23T07:37:33.376Z,34.80
2022-11-23T07:40:01.669Z,32.30
2022-11-23T07:42:34.680Z,33.20
2022-11-23T07:45:05.719Z,26.20
2022-11-23T07:47:33.978Z,33.00
2022-11-23T07:50:01.944Z,28.80
2022-11-23T07:52:29.860Z,23.80
2022-11-23T07:54:57.937Z,23.50
2022-11-23T07:57:25.904Z,38.50
2022-11-23T07:59:53.838Z,20.80
2022-11-23T08:02:21.900Z,20.80
2022-11-23T08:04:49.772Z,19.40
2022-11-23T08:07:17.730Z,20.20
2022-11-23T08:09:45.630Z,22.00
2022-11-23T08:12:13.564Z,19.90
2022-11-23T08:14:41.438Z,21.70
2022-11-23T08:17:09.340Z,25.40
2022-11-23T08:19:37.245Z,21.70
2022-11-23T08:22:05.112Z,19.90
2022-11-23T08:24:33.214Z,20.40
2022-11-23T08:27:01.637Z,44.90
2022-11-23T08:29:30.310Z,19.60
2022-11-23T08:31:58.413Z,25.20
2022-11-23T08:34:26.433Z,23.70
2022-11-23T08:36:54.367Z,31.50
2022-11-23T08:39:22.590Z,24.20
2022-11-23T08:41:50.444Z,29.00
2022-11-23T08:44:18.367Z,21.30
2022-11-23T08:46:46.320Z,25.10
2022-11-23T08:49:14.279Z,28.00
2022-11-23T08:51:47.050Z,26.80
2022-11-23T08:54:17.995Z,31.00
2022-11-23T08:56:46.262Z,33.90
2022-11-23T08:59:14.075Z,29.60
2022-11-23T09:01:42.008Z,28.70
2022-11-23T09:04:10.007Z,30.30
2022-11-23T09:06:37.921Z,30.90
2022-11-23T09:09:05.874Z,34.30
2022-11-23T09:11:33.830Z,30.60
2022-11-23T09:14:01.847Z,28.60
2022-11-23T09:16:33.914Z,31.40
2022-11-23T09:19:02.551Z,34.10
2022-11-23T09:21:33.581Z,36.50
2022-11-23T09:24:02.339Z,37.80
2022-11-23T09:26:31.876Z,32.40
2022-11-23T09:29:00.340Z,30.90
2022-11-23T09:31:28.977Z,32.60
2022-11-23T09:33:57.124Z,31.20
2022-11-23T09:36:25.131Z,31.20
2022-11-23T09:38:57.439Z,38.70
2022-11-23T09:41:50.385Z,27.10
2022-11-23T09:44:39.475Z,33.60
2022-11-23T09:47:25.482Z,33.80
2022-11-23T09:49:56.359Z,27.70
2022-11-23T09:52:25.668Z,30.80
2022-11-23T09:54:57.317Z,30.30
2022-11-23T09:57:30.779Z,30.90
2022-11-23T10:00:19.110Z,25.40
2022-11-23T10:02:47.481Z,26.80
2022-11-23T10:05:22.666Z,27.10
2022-11-23T10:08:04.579Z,24.40
2022-11-23T10:10:45.347Z,23.80
2022-11-23T10:13:46.084Z,24.30
2022-11-23T10:16:46.578Z,24.00
2022-11-23T10:19:46.150Z,25.20
2022-11-23T10:22:26.515Z,25.10
2022-11-23T10:25:08.263Z,27.00
2022-11-23T10:27:36.289Z,30.50
2022-11-23T10:30:12.640Z,27.30
2022-11-23T10:32:55.599Z,26.60
2022-11-23T10:35:33.254Z,28.90
2022-11-23T10:38:22.647Z,23.10
2022-11-23T10:40:59.725Z,23.50
2022-11-23T10:43:34.131Z,29.70
2022-11-23T10:46:34.771Z,26.10
2022-11-23T10:49:10.721Z,26.10
2022-11-23T10:51:39.814Z,24.20
2022-11-23T10:54:27.868Z,25.00
2022-11-23T10:56:57.105Z,21.40
2022-11-23T10:59:31.475Z,20.30
2022-11-23T11:02:18.162Z,22.60
2022-11-23T11:04:47.645Z,24.40
2022-11-23T11:07:28.650Z,24.30
2022-11-23T11:10:00.271Z,21.90
2022-11-23T11:12:30.214Z,22.90
2022-11-23T11:15:14.706Z,23.90
2022-11-23T11:17:42.947Z,24.60
2022-11-23T11:20:29.221Z,17.90
2022-11-23T11:23:15.813Z,21.40
2022-11-23T11:25:44.642Z,21.40
2022-11-23T11:28:24.065Z,24.80
2022-11-23T11:31:14.962Z,28.90
2022-11-23T11:34:03.079Z,25.40
2022-11-23T11:36:38.079Z,23.50
2022-11-23T11:39:19.778Z,22.00
2022-11-23T11:41:50.724Z,19.90
2022-11-23T11:44:26.949Z,18.50
2022-11-23T11:47:19.471Z,19.70
2022-11-23T11:49:50.311Z,16.20
2022-11-23T11:52:26.237Z,18.20
2022-11-23T11:55:12.852Z,13.60
2022-11-23T11:57:54.950Z,12.90
2022-11-23T12:00:23.365Z,29.70
2022-11-23T12:03:19.538Z,12.60
2022-11-23T12:05:53.064Z,11.50
2022-11-23T12:09:07.058Z,12.30
2022-11-23T12:11:35.044Z,17.10
2022-11-23T12:14:05.960Z,14.20
2022-11-23T12:16:59.470Z,14.30
2022-11-23T12:19:48.794Z,18.30
2022-11-23T12:22:16.753Z,14.00
2022-11-23T12:25:11.736Z,17.60
2022-11-23T12:27:45.026Z,16.70
2022-11-23T12:30:54.743Z,16.70
2022-11-23T12:33:25.287Z,16.20
2022-11-23T12:36:09.807Z,12.00
2022-11-23T12:39:22.506Z,16.10
2022-11-23T12:42:11.910Z,10.20
2022-11-23T12:44:42.409Z,11.50
2022-11-23T12:47:38.924Z,14.50
2022-11-23T12:50:49.576Z,16.60
2022-11-23T12:53:36.090Z,17.20
2022-11-23T12:56:16.257Z,17.20
2022-11-23T12:58:46.867Z,18.80
2022-11-23T13:01:29.343Z,19.80
2022-11-23T13:04:01.567Z,22.20
2022-11-23T13:07:43.248Z,20.30
2022-11-23T13:10:27.710Z,17.40
2022-11-23T13:13:20.337Z,16.30
2022-11-23T13:15:57.595Z,17.60
2022-11-23T13:18:58.874Z,16.00
2022-11-23T13:21:39.580Z,15.30
2022-11-23T13:24:35.741Z,16.00
2022-11-23T13:27:13.330Z,17.70
2022-11-23T13:29:58.701Z,13.40
2022-11-23T13:32:38.827Z,16.10
2022-11-23T13:35:18.787Z,14.00
2022-11-23T13:38:00.401Z,25.80
2022-11-23T13:40:32.718Z,21.40
2022-11-23T13:43:05.252Z,22.30
2022-11-23T13:45:36.457Z,20.90
2022-11-23T13:48:13.275Z,19.70
2022-11-23T13:50:47.595Z,18.00
2022-11-23T13:53:25.550Z,24.10
2022-11-23T13:55:57.227Z,22.50
2022-11-23T13:58:25.096Z,21.10
2022-11-23T14:00:58.199Z,20.00
2022-11-23T14:03:48.453Z,22.20
2022-11-23T14:06:56.864Z,21.40
2022-11-23T14:09:34.971Z,22.40
2022-11-23T14:12:12.995Z,24.20
2022-11-23T14:14:43.948Z,20.80
2022-11-23T14:17:20.769Z,28.20
2022-11-23T14:19:48.545Z,35.50
2022-11-23T14:22:31.735Z,28.50
2022-11-23T14:25:30.535Z,31.50
2022-11-23T14:28:33.212Z,85.60
2022-11-23T14:31:07.485Z,125.60
2022-11-23T14:33:46.229Z,43.20
2022-11-23T14:36:29.300Z,35.30
2022-11-23T14:39:19.858Z,27.30
2022-11-23T14:41:53.464Z,24.20
2022-11-23T14:44:26.347Z,38.50
2022-11-23T14:47:05.576Z,24.40
2022-11-23T14:49:34.105Z,26.20
2022-11-23T14:52:04.689Z,28.20
2022-11-23T14:54:33.207Z,31.20
2022-11-23T14:57:04.629Z,35.60
2022-11-23T14:59:40.901Z,34.10
2022-11-23T15:02:17.555Z,45.70
2022-11-23T15:05:14.758Z,29.30
2022-11-23T15:07:52.633Z,37.10
2022-11-23T15:10:42.810Z,31.10
2022-11-23T15:13:22.907Z,28.50
2022-11-23T15:15:53.815Z,36.90
2022-11-23T15:18:33.116Z,31.20
2022-11-23T15:21:04.551Z,34.70
2022-11-23T15:23:50.353Z,40.50
2022-11-23T15:26:46.329Z,43.70
2022-11-23T15:29:29.063Z,38.00
2022-11-23T15:32:22.470Z,37.60
2022-11-23T15:34:45.515Z,40.40
2022-11-23T15:37:13.682Z,36.90
2022-11-23T15:39:42.297Z,40.80
2022-11-23T15:42:22.835Z,34.90
2022-11-23T15:44:52.242Z,42.30
2022-11-23T15:47:27.783Z,37.60
2022-11-23T15:50:08.205Z,33.70
2022-11-23T15:52:37.909Z,32.80
2022-11-23T15:55:10.188Z,34.30
2022-11-23T15:57:39.715Z,34.90
2022-11-23T16:00:12.595Z,38.60
2022-11-23T16:02:40.664Z,46.80
2022-11-23T16:05:11.456Z,43.00
2022-11-23T16:07:59.963Z,37.90
2022-11-23T16:10:29.106Z,36.40
2022-11-23T16:13:00.895Z,36.90
2022-11-23T16:15:32.676Z,47.40
2022-11-23T16:18:02.383Z,37.80
2022-11-23T16:20:31.773Z,51.40
2022-11-23T16:23:01.036Z,42.80
2022-11-23T16:25:32.551Z,52.70
2022-11-23T16:28:02.873Z,50.30
2022-11-23T16:30:42.488Z,49.80
2022-11-23T16:33:19.106Z,44.60
2022-11-23T16:35:47.960Z,41.00
2022-11-23T16:38:16.325Z,42.00
2022-11-23T16:40:45.931Z,43.70
2022-11-23T16:43:15.500Z,49.60
2022-11-23T16:45:49.410Z,46.50
2022-11-23T16:50:55.897Z,49.70
2022-11-23T16:53:27.078Z,46.60
2022-11-23T16:55:57.702Z,45.50
2022-11-23T16:58:27.683Z,51.00
2022-11-23T17:00:56.272Z,52.60
2022-11-23T17:03:25.151Z,57.50
2022-11-23T17:05:53.133Z,52.90
2022-11-23T17:08:23.862Z,50.60
2022-11-23T17:10:52.251Z,54.50
2022-11-23T17:13:26.746Z,53.70
2022-11-23T17:15:55.424Z,57.30
2022-11-23T17:18:23.252Z,53.00
2022-11-23T17:20:51.214Z,57.00
2022-11-23T17:23:19.193Z,45.80
2022-11-23T17:25:47.141Z,53.00
2022-11-23T17:28:17.978Z,45.90
2022-11-23T17:30:45.905Z,40.50
2022-11-23T17:33:14.024Z,34.30
2022-11-23T17:35:42.115Z,42.10
2022-11-23T17:38:16.195Z,45.80
2022-11-23T17:40:44.034Z,40.90
2022-11-23T17:43:15.433Z,42.30
2022-11-23T17:45:44.885Z,44.20
2022-11-23T17:48:15.966Z,48.50
2022-11-23T17:50:43.984Z,52.00
2022-11-23T17:53:11.962Z,51.90
2022-11-23T17:55:41.007Z,59.30
2022-11-23T17:58:11.760Z,61.90
2022-11-23T18:00:39.794Z,58.20
2022-11-23T18:03:07.949Z,57.10
2022-11-23T18:05:36.362Z,56.40
2022-11-23T18:08:04.356Z,54.60
2022-11-23T18:10:32.264Z,51.80
2022-11-23T18:13:00.127Z,52.50
2022-11-23T18:15:30.245Z,49.70
2022-11-23T18:18:03.151Z,54.60
2022-11-23T18:20:32.657Z,52.30
2022-11-23T18:23:01.160Z,54.20
2022-11-23T18:25:29.217Z,59.00
2022-11-23T18:27:57.150Z,63.80
2022-11-23T18:30:24.974Z,66.70
2022-11-23T18:32:52.830Z,74.00
2022-11-23T18:35:20.844Z,65.70
2022-11-23T18:37:48.851Z,72.20
2022-11-23T18:40:16.911Z,74.20
2022-11-23T18:42:45.241Z,62.70
2022-11-23T18:45:13.197Z,61.30
2022-11-23T18:47:41.162Z,53.00
2022-11-23T18:50:09.348Z,61.40
2022-11-23T18:52:37.279Z,57.20
2022-11-23T18:55:05.518Z,46.60
2022-11-23T18:57:33.436Z,59.70
2022-11-23T19:00:01.909Z,51.10
2022-11-23T19:02:30.549Z,51.90
2022-11-23T19:04:58.568Z,54.30
2022-11-23T19:07:27.446Z,55.60
2022-11-23T19:09:55.614Z,52.40
2022-11-23T19:12:23.707Z,54.80
2022-11-23T19:14:51.721Z,58.70
2022-11-23T19:17:19.880Z,58.20
2022-11-23T19:19:47.743Z,52.20
2022-11-23T19:22:15.727Z,57.90
2022-11-23T19:24:43.690Z,59.20
2022-11-23T19:27:11.562Z,58.50
2022-11-23T19:29:39.442Z,65.50
2022-11-23T19:32:07.557Z,57.60
2022-11-23T19:34:35.629Z,54.90
2022-11-23T19:37:03.556Z,52.00
2022-11-23T19:39:31.866Z,72.10
2022-11-23T19:42:00.187Z,62.20
2022-11-23T19:44:28.329Z,58.90
2022-11-23T19:46:56.412Z,62.20
2022-11-23T19:49:24.398Z,69.50
2022-11-23T19:51:53.780Z,71.40
2022-11-23T19:54:21.710Z,59.60
2022-11-23T19:56:50.376Z,63.40
2022-11-23T19:59:18.434Z,70.50
2022-11-23T20:01:46.462Z,64.80
2022-11-23T20:04:14.349Z,74.00
2022-11-23T20:06:44.513Z,70.00
2022-11-23T20:09:17.074Z,68.00
2022-11-23T20:11:50.397Z,68.70
2022-11-23T20:14:19.510Z,64.40
2022-11-23T20:16:48.055Z,68.10
2022-11-23T20:19:16.286Z,68.10
2022-11-23T20:21:44.232Z,70.90
2022-11-23T20:24:15.065Z,63.00
2022-11-23T20:26:43.404Z,65.60
2022-11-23T20:29:13.816Z,61.40
2022-11-23T20:31:41.987Z,66.70
2022-11-23T20:34:14.225Z,68.20
2022-11-23T20:36:45.708Z,65.90
2022-11-23T20:39:16.164Z,65.80
2022-11-23T20:41:45.192Z,67.30
2022-11-23T20:44:14.426Z,75.70
2022-11-23T20:47:01.192Z,69.90
2022-11-23T20:49:31.724Z,70.10
2022-11-23T20:52:00.197Z,72.80
2022-11-23T20:54:28.627Z,81.70
2022-11-23T20:57:00.137Z,107.40
2022-11-23T20:59:28.440Z,97.80
2022-11-23T21:01:56.605Z,77.10
2022-11-23T21:04:24.662Z,79.40
2022-11-23T21:06:52.586Z,70.20
2022-11-23T21:09:20.480Z,75.10
2022-11-23T21:12:07.093Z,71.70
2022-11-23T21:14:35.044Z,75.00
2022-11-23T21:17:03.823Z,74.00
2022-11-23T21:19:32.712Z,125.80
2022-11-23T21:22:18.743Z,188.10
2022-11-23T21:24:46.626Z,204.90
2022-11-23T21:27:14.505Z,233.40
2022-11-23T21:29:45.057Z,133.50
2022-11-23T21:32:14.988Z,97.60
2022-11-23T21:34:43.202Z,108.00
2022-11-23T21:37:12.505Z,91.10
2022-11-23T21:39:42.105Z,76.40
2022-11-23T21:42:10.572Z,72.90
2022-11-23T21:44:38.445Z,69.40
2022-11-23T21:47:06.846Z,69.20
2022-11-23T21:49:34.829Z,72.20
2022-11-23T21:52:02.694Z,62.40
2022-11-23T21:54:30.550Z,69.40
2022-11-23T21:56:58.711Z,67.60
2022-11-23T21:59:26.590Z,63.20
2022-11-23T22:01:57.270Z,58.40
2022-11-23T22:04:25.419Z,63.10
2022-11-23T22:06:53.220Z,53.90
2022-11-23T22:09:21.078Z,58.40
2022-11-23T22:11:49.505Z,69.10
2022-11-23T22:14:19.608Z,60.10
2022-11-23T22:16:56.739Z,59.50
2022-11-23T22:19:24.564Z,69.50
2022-11-23T22:21:52.378Z,57.90
2022-11-23T22:24:22.588Z,62.40
2022-11-23T22:26:50.461Z,67.70
2022-11-23T22:29:18.412Z,57.30
2022-11-23T22:31:46.234Z,64.80
2022-11-23T22:34:14.917Z,62.20
2022-11-23T22:36:43.056Z,60.60
2022-11-23T22:39:11.125Z,67.60
2022-11-23T22:41:39.475Z,65.00
2022-11-23T22:44:10.158Z,79.90
2022-11-23T22:46:38.989Z,75.30
2022-11-23T22:49:07.350Z,76.70
2022-11-23T22:51:35.364Z,76.30
2022-11-23T22:54:03.936Z,76.60
2022-11-23T22:56:31.893Z,68.50
2022-11-23T22:59:00.196Z,72.40
2022-11-23T23:01:30.519Z,66.20
2022-11-23T23:04:01.599Z,63.60
2022-11-23T23:06:34.630Z,69.90
2022-11-23T23:09:06.550Z,66.80
2022-11-23T23:11:36.274Z,66.30
2022-11-23T23:14:04.156Z,60.00
2022-11-23T23:16:32.250Z,71.20
2022-11-23T23:19:00.549Z,55.00
2022-11-23T23:21:29.271Z,58.20
2022-11-23T23:24:00.944Z,60.80
2022-11-23T23:26:29.398Z,58.90
2022-11-23T23:28:59.675Z,56.20
2022-11-23T23:31:29.286Z,55.30
2022-11-23T23:33:59.358Z,53.10
2022-11-23T23:36:27.671Z,51.40
2022-11-23T23:38:55.741Z,62.60
2022-11-23T23:41:23.595Z,53.20
2022-11-23T23:43:51.534Z,52.60
2022-11-23T23:46:19.607Z,49.10
2022-11-23T23:48:47.578Z,52.30
2022-11-23T23:51:21.492Z,53.90
2022-11-23T23:56:24.284Z,49.50
2022-11-23T23:58:53.305Z,48.70
